Chapleau, Canada
Current Conditions -  °F | °C
As of 9:00 AM on Saturday 01 Nov 2014 (Local Time) from CYLD Reporting Station
Broken Clouds Broken Clouds  
Wind Chill: 21°   Ceiling: 1200
Heat Index: 21°   Visibility: 15mi
Dew Point: 18°   Wind: 0mph
Humidity: 86%   Direction: NA
Pressure: 30.4"   Gusts: NA
Location:  47.84°N, 83.4°W
Report Text: CYLD 011300Z 00000KT 15SM BKN012 M06/M08 A3040 RMK SC7 SLP326
Loading
Personal Weather Stations






























Interactive Weather Map
Tropical Storm Tracking
New forecast layout! Learn more

10-Day Weather Forecast

Advertisements
Track Severe Weather on mobile